Time;durP1;ratioP1;P1;durP2;ratioP2;P2;SDS_P1;SDS_P2;PMS_P1;PMS_P2;Temp;Humidity;BMP_temperature;BMP_pressure;BME280_temperature;BME280_humidity;BME280_pressure;Samples;Min_cycle;Max_cycle;Signal;HPM_P1;HPM_P2
2022/01/24 00:01:16;;;;;;;9.93;8.27;;;4.70;99.90;;;;;;5108792;28;20098;-56
2022/01/24 00:03:42;;;;;;;10.38;8.32;;;4.70;99.90;;;;;;5109362;28;20130;-58
2022/01/24 00:06:13;;;;;;;11.10;8.68;;;4.80;99.90;;;;;;5108823;28;20035;-50
2022/01/24 00:08:39;;;;;;;12.02;9.27;;;4.80;99.90;;;;;;5109325;28;20028;-54
2022/01/24 00:11:13;;;;;;;12.77;9.38;;;4.80;99.90;;;;;;5107919;28;20034;-55
2022/01/24 00:16:56;;;;;;;12.25;9.25;;;4.80;99.90;;;;;;5108599;28;20089;-54
2022/01/24 00:27:10;;;;;;;14.95;8.70;;;4.80;99.90;;;;;;5107616;28;20035;-53
2022/01/24 00:29:35;;;;;;;11.27;8.77;;;4.70;99.90;;;;;;5107810;28;20398;-56
2022/01/24 00:32:01;;;;;;;11.30;9.18;;;4.70;99.90;;;;;;5107632;28;20032;-55
2022/01/24 00:34:27;;;;;;;12.25;9.23;;;4.80;99.90;;;;;;5107260;28;20042;-56
2022/01/24 00:36:53;;;;;;;13.40;8.35;;;4.70;99.90;;;;;;5107438;28;20026;-52
2022/01/24 00:39:21;;;;;;;11.30;8.73;;;4.70;99.90;;;;;;5106567;28;20097;-56
2022/01/24 00:44:40;;;;;;;11.05;8.45;;;4.70;99.90;;;;;;5106739;28;20675;-55
2022/01/24 00:47:11;;;;;;;11.90;7.90;;;4.70;99.90;;;;;;5107843;28;20119;-55
2022/01/24 00:54:53;;;;;;;10.68;7.50;;;4.70;99.90;;;;;;5107337;28;20045;-55
2022/01/24 00:57:19;;;;;;;8.95;7.38;;;4.70;99.90;;;;;;5105698;28;20020;-56
2022/01/24 00:59:45;;;;;;;9.90;7.13;;;4.70;99.90;;;;;;5105397;28;20019;-53
2022/01/24 01:02:11;;;;;;;9.77;7.05;;;4.70;99.90;;;;;;5106312;28;20020;-53
2022/01/24 01:07:25;;;;;;;8.90;6.55;;;4.70;99.90;;;;;;5107446;28;20038;-54
2022/01/24 01:18:15;;;;;;;9.07;6.55;;;4.70;99.90;;;;;;5107556;28;20023;-53
2022/01/24 01:21:24;;;;;;;8.48;5.88;;;4.70;99.90;;;;;;5107101;28;20499;-56
2022/01/24 01:23:32;;;;;;;8.30;6.20;;;4.70;99.90;;;;;;5101024;28;20046;-54
2022/01/24 01:26:02;;;;;;;9.35;5.90;;;4.70;99.90;;;;;;5107237;28;20020;-53
2022/01/24 01:28:29;;;;;;;7.88;6.63;;;4.70;99.90;;;;;;5107194;28;20017;-54
2022/01/24 01:30:59;;;;;;;8.18;6.28;;;4.70;99.90;;;;;;5103310;28;20023;-55
2022/01/24 01:33:45;;;;;;;8.70;6.43;;;4.80;99.90;;;;;;5106397;28;20036;-55
2022/01/24 01:36:18;;;;;;;12.52;6.45;;;4.70;99.90;;;;;;5106488;28;20020;-53
2022/01/24 01:55:39;;;;;;;11.50;7.03;;;4.70;99.90;;;;;;5106975;28;20081;-54
2022/01/24 01:58:11;;;;;;;11.10;6.65;;;4.70;99.90;;;;;;5105466;28;20506;-55
2022/01/24 02:00:39;;;;;;;9.13;7.35;;;4.70;99.90;;;;;;5104438;28;20028;-53
2022/01/24 02:03:05;;;;;;;14.45;7.40;;;4.70;99.90;;;;;;5104898;28;20099;-53
2022/01/24 02:05:31;;;;;;;10.27;7.05;;;4.70;99.90;;;;;;5107139;28;20103;-54
2022/01/24 02:07:56;;;;;;;7.53;5.95;;;4.70;99.90;;;;;;5108038;28;20491;-54
2022/01/24 02:10:24;;;;;;;7.75;6.50;;;4.70;99.90;;;;;;5108915;28;20035;-57
2022/01/24 02:12:52;;;;;;;6.97;6.20;;;4.70;99.90;;;;;;5108836;28;20085;-55
2022/01/24 02:15:26;;;;;;;8.20;6.60;;;4.70;99.90;;;;;;5108840;28;20039;-58
2022/01/24 02:21:05;;;;;;;8.40;6.63;;;4.70;99.90;;;;;;5109943;28;20032;-53
2022/01/24 02:25:57;;;;;;;7.88;5.70;;;4.70;99.90;;;;;;5111850;28;20027;-56
2022/01/24 02:28:26;;;;;;;7.38;6.03;;;4.70;99.90;;;;;;5109715;28;20019;-54
2022/01/24 02:33:30;;;;;;;7.93;5.78;;;4.70;99.90;;;;;;5109981;28;20022;-58
2022/01/24 02:35:55;;;;;;;9.63;6.90;;;4.70;99.90;;;;;;5110746;28;20024;-55
2022/01/24 02:49:29;;;;;;;12.25;7.95;;;4.60;99.90;;;;;;5109500;28;20060;-53
2022/01/24 02:52:24;;;;;;;9.38;7.28;;;4.60;99.90;;;;;;5108986;28;20164;-56
2022/01/24 02:54:50;;;;;;;9.57;7.47;;;4.60;99.90;;;;;;5107313;28;20024;-53
2022/01/24 02:57:15;;;;;;;10.82;7.93;;;4.60;99.90;;;;;;5107652;28;20022;-53
2022/01/24 02:59:42;;;;;;;16.45;7.65;;;4.70;99.90;;;;;;5109892;28;20515;-56
2022/01/24 03:02:09;;;;;;;9.57;7.80;;;4.60;99.90;;;;;;5107407;28;20012;-54
2022/01/24 03:04:34;;;;;;;11.70;8.50;;;4.60;99.90;;;;;;5109469;28;20016;-53
2022/01/24 03:07:00;;;;;;;10.75;8.00;;;4.60;99.90;;;;;;5109711;28;20394;-53
2022/01/24 03:09:26;;;;;;;13.88;7.38;;;4.60;99.90;;;;;;5109178;28;20136;-56
2022/01/24 03:12:03;;;;;;;9.38;7.60;;;4.60;99.90;;;;;;5109347;28;20031;-52
2022/01/24 03:14:36;;;;;;;10.20;7.95;;;4.60;99.90;;;;;;5108974;28;20395;-58
2022/01/24 03:17:03;;;;;;;10.88;7.32;;;4.60;99.90;;;;;;5110081;28;20024;-53
2022/01/24 03:19:29;;;;;;;10.57;7.68;;;4.60;99.90;;;;;;5107837;28;20475;-53
2022/01/24 03:21:55;;;;;;;11.32;8.60;;;4.60;99.90;;;;;;5109104;28;20015;-55
2022/01/24 03:24:21;;;;;;;8.45;6.70;;;4.50;99.90;;;;;;5109338;28;20437;-52
2022/01/24 03:26:47;;;;;;;9.50;7.35;;;4.50;99.90;;;;;;5109525;28;20042;-53
2022/01/24 03:29:13;;;;;;;9.38;7.10;;;4.50;99.90;;;;;;5107697;28;20028;-52
2022/01/24 03:31:40;;;;;;;10.35;7.40;;;4.50;99.90;;;;;;5108874;28;20023;-55
2022/01/24 03:34:06;;;;;;;9.30;7.10;;;4.60;99.90;;;;;;5108524;28;20030;-52
2022/01/24 03:36:32;;;;;;;8.38;6.05;;;4.50;99.90;;;;;;5108829;28;20023;-53
2022/01/24 03:38:58;;;;;;;11.50;6.97;;;4.50;99.90;;;;;;5108746;28;20027;-54
2022/01/24 03:41:23;;;;;;;11.10;7.65;;;4.50;99.90;;;;;;5107750;28;20073;-50
2022/01/24 03:43:49;;;;;;;8.13;6.40;;;4.50;99.90;;;;;;5108493;28;20050;-56
2022/01/24 03:48:48;;;;;;;7.63;6.85;;;4.50;99.90;;;;;;5107930;28;20049;-54
2022/01/24 03:51:15;;;;;;;9.20;7.55;;;4.50;99.90;;;;;;5107884;28;20098;-53
2022/01/24 03:53:43;;;;;;;10.70;6.93;;;4.50;99.90;;;;;;5107821;28;20034;-54
2022/01/24 03:56:09;;;;;;;8.40;6.97;;;4.50;99.90;;;;;;5108563;28;20020;-51
2022/01/24 03:58:35;;;;;;;10.15;7.35;;;4.50;99.90;;;;;;5107471;28;20032;-51
2022/01/24 04:01:04;;;;;;;10.40;6.75;;;4.50;99.90;;;;;;5107876;28;20027;-51
2022/01/24 04:03:30;;;;;;;13.15;7.40;;;4.50;99.90;;;;;;5107213;28;20020;-52
2022/01/24 04:05:56;;;;;;;8.57;7.03;;;4.50;99.90;;;;;;5108212;28;20498;-53
2022/01/24 04:08:21;;;;;;;10.27;7.43;;;4.50;99.90;;;;;;5107437;28;20111;-53
2022/01/24 04:10:54;;;;;;;8.30;7.03;;;4.50;99.90;;;;;;5107623;28;20043;-52
2022/01/24 04:13:33;;;;;;;9.90;7.30;;;4.50;99.90;;;;;;5107670;28;20063;-53
2022/01/24 04:21:30;;;;;;;11.05;7.32;;;4.40;99.90;;;;;;5107252;28;20015;-51
2022/01/24 04:26:31;;;;;;;10.68;7.47;;;4.40;99.90;;;;;;5107542;28;20024;-55
2022/01/24 04:28:57;;;;;;;10.30;7.65;;;4.40;99.90;;;;;;5107411;28;20058;-55
2022/01/24 04:31:23;;;;;;;10.18;7.40;;;4.40;99.90;;;;;;5104856;28;20031;-52
2022/01/24 04:33:49;;;;;;;8.68;6.93;;;4.40;99.90;;;;;;5107718;28;20047;-53
2022/01/24 04:36:16;;;;;;;9.38;7.10;;;4.40;99.90;;;;;;5107266;28;20062;-53
2022/01/24 04:38:42;;;;;;;8.55;6.72;;;4.40;99.90;;;;;;5107747;28;20024;-53
2022/01/24 04:41:16;;;;;;;7.65;6.75;;;4.40;99.90;;;;;;5107785;28;20019;-51
2022/01/24 04:43:55;;;;;;;8.73;6.78;;;4.40;99.90;;;;;;5107979;28;20031;-52
2022/01/24 04:51:53;;;;;;;8.18;6.10;;;4.40;99.90;;;;;;5107131;28;20035;-57
2022/01/24 04:54:40;;;;;;;8.93;6.63;;;4.30;99.90;;;;;;5105336;28;20114;-55
2022/01/24 04:57:21;;;;;;;8.40;6.07;;;4.30;99.90;;;;;;5106665;28;20018;-53
2022/01/24 04:59:50;;;;;;;8.23;5.65;;;4.30;99.90;;;;;;5106464;28;20027;-51
2022/01/24 05:02:17;;;;;;;10.27;6.50;;;4.30;99.90;;;;;;5106149;28;20048;-52
2022/01/24 05:04:43;;;;;;;8.98;6.40;;;4.30;99.90;;;;;;5105801;28;20398;-58
2022/01/24 05:07:09;;;;;;;9.25;6.60;;;4.30;99.90;;;;;;5106958;28;20023;-55
2022/01/24 05:09:40;;;;;;;8.90;6.60;;;4.30;99.90;;;;;;5107529;28;20035;-49
2022/01/24 05:25:53;;;;;;;9.73;6.68;;;4.20;99.90;;;;;;5106998;28;20023;-52
2022/01/24 05:28:19;;;;;;;9.35;6.90;;;4.20;99.90;;;;;;5106751;28;20031;-54
2022/01/24 05:30:45;;;;;;;9.65;7.05;;;4.20;99.90;;;;;;5106680;28;20099;-54
2022/01/24 05:33:11;;;;;;;10.63;8.40;;;4.20;99.90;;;;;;5105159;28;20099;-53
2022/01/24 05:35:37;;;;;;;11.43;7.72;;;4.20;99.90;;;;;;5106991;28;20508;-55
2022/01/24 05:38:03;;;;;;;10.35;7.00;;;4.20;99.90;;;;;;5106732;28;20035;-52
2022/01/24 05:40:29;;;;;;;9.75;6.95;;;4.20;99.90;;;;;;5106104;28;20093;-54
2022/01/24 05:42:55;;;;;;;10.20;7.28;;;4.20;99.90;;;;;;5108082;28;20012;-55
2022/01/24 05:45:20;;;;;;;9.88;8.30;;;4.20;99.90;;;;;;5110813;28;20110;-53
2022/01/24 05:47:46;;;;;;;12.77;8.18;;;4.20;99.90;;;;;;5111510;28;20023;-50
2022/01/24 05:50:12;;;;;;;10.48;7.90;;;4.20;99.90;;;;;;5111371;28;20020;-55
2022/01/24 05:52:37;;;;;;;10.20;7.85;;;4.20;99.90;;;;;;5109741;28;20032;-55
2022/01/24 05:55:04;;;;;;;11.15;7.68;;;4.10;99.90;;;;;;5110245;28;20051;-54
2022/01/24 05:57:30;;;;;;;11.02;7.57;;;4.10;99.90;;;;;;5108920;28;20024;-53
2022/01/24 05:59:55;;;;;;;10.93;7.90;;;4.20;99.90;;;;;;5110461;28;20575;-53
2022/01/24 06:02:21;;;;;;;10.63;7.47;;;4.10;99.90;;;;;;5109357;28;20039;-52
2022/01/24 06:04:47;;;;;;;10.43;7.95;;;4.20;99.90;;;;;;5110421;28;20019;-55
2022/01/24 06:07:13;;;;;;;13.05;8.15;;;4.10;99.90;;;;;;5110239;28;20043;-53
2022/01/24 06:09:38;;;;;;;12.05;8.57;;;4.20;99.90;;;;;;5110173;28;20032;-51
2022/01/24 06:12:04;;;;;;;10.73;7.82;;;4.10;99.90;;;;;;5110113;28;20092;-57
2022/01/24 06:14:30;;;;;;;11.80;8.90;;;4.10;99.90;;;;;;5110064;28;20043;-52
2022/01/24 06:16:56;;;;;;;13.35;8.70;;;4.20;99.90;;;;;;5109165;28;20020;-50
2022/01/24 06:19:21;;;;;;;15.52;8.75;;;4.20;99.90;;;;;;5109642;28;20055;-55
2022/01/24 06:21:47;;;;;;;10.40;8.10;;;4.20;99.90;;;;;;5109874;28;20030;-54
2022/01/24 06:24:13;;;;;;;10.15;8.27;;;4.10;99.90;;;;;;5109391;28;20103;-52
2022/01/24 06:26:39;;;;;;;10.55;7.93;;;4.10;99.90;;;;;;5109961;28;20031;-53
2022/01/24 06:29:04;;;;;;;12.52;9.35;;;4.10;99.90;;;;;;5109285;28;20039;-53
2022/01/24 06:31:30;;;;;;;11.30;8.80;;;4.10;99.90;;;;;;5109280;28;20028;-55
2022/01/24 06:33:56;;;;;;;11.60;9.18;;;4.10;99.90;;;;;;5109576;28;20042;-51
2022/01/24 06:36:21;;;;;;;12.82;8.85;;;4.10;99.90;;;;;;5108776;28;20035;-51
2022/01/24 06:38:47;;;;;;;12.13;8.73;;;4.10;99.90;;;;;;5109960;28;20016;-50
2022/01/24 06:41:21;;;;;;;11.20;8.90;;;4.10;99.90;;;;;;5109866;28;20067;-55
2022/01/24 06:43:47;;;;;;;12.95;9.43;;;4.10;99.90;;;;;;5108765;28;20030;-57
2022/01/24 06:46:13;;;;;;;11.27;9.05;;;4.10;99.90;;;;;;5110051;28;20015;-51
2022/01/24 06:48:39;;;;;;;11.75;8.90;;;4.10;99.90;;;;;;5108509;28;20027;-53
2022/01/24 06:51:10;;;;;;;14.45;9.60;;;4.10;99.90;;;;;;5109421;28;20019;-55
2022/01/24 06:53:41;;;;;;;12.90;9.30;;;4.00;99.90;;;;;;5107526;28;20100;-52
2022/01/24 06:56:07;;;;;;;12.88;9.05;;;4.10;99.90;;;;;;5108765;28;20023;-56
2022/01/24 06:58:34;;;;;;;13.95;10.75;;;4.10;99.90;;;;;;5106325;28;20118;-50
2022/01/24 07:01:00;;;;;;;13.30;8.88;;;4.10;99.90;;;;;;5109313;28;20471;-51
2022/01/24 07:03:26;;;;;;;13.55;9.80;;;4.10;99.90;;;;;;5108296;28;20084;-53
2022/01/24 07:05:51;;;;;;;11.70;8.65;;;4.10;99.90;;;;;;5108138;28;20042;-52
2022/01/24 07:08:17;;;;;;;11.95;8.27;;;4.10;99.90;;;;;;5109778;28;20501;-54
2022/01/24 07:10:42;;;;;;;11.25;8.52;;;4.00;99.90;;;;;;5109347;28;20403;-53
2022/01/24 07:13:08;;;;;;;11.98;8.45;;;4.10;99.90;;;;;;5109087;28;20529;-54
2022/01/24 07:15:39;;;;;;;12.38;8.98;;;4.10;99.90;;;;;;5108605;28;20024;-54
2022/01/24 07:20:35;;;;;;;16.77;9.55;;;4.00;99.90;;;;;;5107003;28;20115;-54
2022/01/24 07:23:03;;;;;;;17.80;10.55;;;4.00;99.90;;;;;;5108171;28;20023;-50
2022/01/24 07:25:29;;;;;;;11.85;8.63;;;4.00;99.90;;;;;;5108263;28;20065;-50
2022/01/24 07:27:54;;;;;;;14.60;10.80;;;4.00;99.90;;;;;;5108583;28;20062;-55
2022/01/24 07:30:20;;;;;;;16.33;10.90;;;4.00;99.90;;;;;;5107247;28;20164;-54
2022/01/24 07:32:45;;;;;;;16.52;11.32;;;4.00;99.90;;;;;;5106654;28;20602;-54
2022/01/24 07:35:11;;;;;;;16.30;11.32;;;4.00;99.90;;;;;;5107049;28;20031;-53
2022/01/24 07:37:37;;;;;;;19.05;12.40;;;4.00;99.90;;;;;;5106386;28;20023;-52
2022/01/24 07:40:06;;;;;;;17.55;11.68;;;4.00;99.90;;;;;;5107036;28;20140;-53
2022/01/24 07:45:17;;;;;;;17.38;12.55;;;4.00;99.90;;;;;;5108328;28;20042;-54
2022/01/24 07:47:42;;;;;;;19.98;12.05;;;4.00;99.90;;;;;;5107963;28;20019;-51
2022/01/24 07:50:09;;;;;;;20.30;13.55;;;4.00;99.90;;;;;;5108341;28;20134;-57
2022/01/24 07:52:36;;;;;;;22.10;13.98;;;4.00;99.90;;;;;;5107348;28;20028;-51
2022/01/24 07:55:02;;;;;;;19.38;13.70;;;4.00;99.90;;;;;;5108473;28;20028;-52
2022/01/24 07:57:27;;;;;;;22.08;14.73;;;4.00;99.90;;;;;;5107708;28;20031;-54
2022/01/24 07:59:53;;;;;;;22.58;15.32;;;4.00;99.90;;;;;;5107277;28;20387;-55
2022/01/24 08:02:18;;;;;;;24.98;15.73;;;4.00;99.90;;;;;;5107792;28;20024;-53
2022/01/24 08:04:44;;;;;;;22.13;13.85;;;4.00;99.90;;;;;;5108002;28;20106;-56
2022/01/24 08:07:10;;;;;;;23.67;15.95;;;4.00;99.90;;;;;;5107997;28;20028;-55
2022/01/24 08:09:35;;;;;;;22.35;13.93;;;4.00;99.90;;;;;;5108730;28;20031;-52
2022/01/24 08:12:01;;;;;;;26.60;15.43;;;4.00;99.90;;;;;;5107934;28;20673;-55
2022/01/24 08:14:27;;;;;;;24.23;16.80;;;4.00;99.90;;;;;;5108112;28;20019;-53
2022/01/24 08:16:53;;;;;;;25.02;15.80;;;4.00;99.90;;;;;;5108379;28;20394;-55
2022/01/24 08:19:19;;;;;;;29.13;17.10;;;4.00;99.90;;;;;;5107105;28;20988;-53
2022/01/24 08:21:45;;;;;;;27.77;16.83;;;4.00;99.90;;;;;;5106645;28;20026;-52
2022/01/24 08:24:12;;;;;;;28.38;18.70;;;4.00;99.90;;;;;;5107181;28;20077;-54
2022/01/24 08:26:37;;;;;;;29.70;17.77;;;4.00;99.90;;;;;;5108250;28;20092;-55
2022/01/24 08:29:04;;;;;;;26.27;16.80;;;4.10;99.90;;;;;;5106032;28;20019;-57
2022/01/24 08:31:30;;;;;;;28.73;17.98;;;4.00;99.90;;;;;;5102552;28;20063;-53
2022/01/24 08:33:56;;;;;;;27.00;17.05;;;4.10;99.90;;;;;;5105105;28;20067;-52
2022/01/24 08:36:22;;;;;;;31.75;18.35;;;4.00;99.90;;;;;;5105932;28;20031;-56
2022/01/24 08:38:50;;;;;;;31.23;19.15;;;4.10;99.90;;;;;;5105565;28;20032;-52
2022/01/24 08:41:26;;;;;;;26.75;17.40;;;4.10;99.90;;;;;;5106197;28;20107;-56
2022/01/24 08:43:59;;;;;;;;;;;4.00;99.90;;;;;;5106093;28;20035;-53
2022/01/24 08:46:25;;;;;;;24.13;14.80;;;4.10;99.90;;;;;;5105237;28;20311;-55
2022/01/24 08:48:50;;;;;;;27.83;18.35;;;4.10;99.90;;;;;;5105877;28;20050;-54
2022/01/24 08:51:17;;;;;;;31.48;19.38;;;4.00;99.90;;;;;;5107617;28;20471;-58
2022/01/24 08:53:43;;;;;;;29.65;19.60;;;4.10;99.90;;;;;;5106366;28;20143;-54
2022/01/24 08:56:11;;;;;;;30.10;18.65;;;4.10;99.90;;;;;;5107477;28;20025;-55
2022/01/24 08:58:37;;;;;;;35.95;20.17;;;4.10;99.90;;;;;;5105423;28;20390;-52
2022/01/24 09:01:03;;;;;;;40.33;22.02;;;4.10;99.90;;;;;;5107233;28;20099;-52
2022/01/24 09:03:32;;;;;;;34.40;21.95;;;4.10;99.90;;;;;;5107483;28;20035;-55
2022/01/24 09:06:00;;;;;;;36.78;21.08;;;4.00;99.90;;;;;;5105543;28;20030;-54
2022/01/24 09:08:26;;;;;;;32.42;20.70;;;4.10;99.90;;;;;;5107229;28;20024;-54
2022/01/24 09:10:52;;;;;;;38.00;21.77;;;4.10;99.90;;;;;;5106317;28;20040;-54
2022/01/24 09:13:21;;;;;;;35.05;21.17;;;4.10;99.90;;;;;;5107313;28;20110;-51
2022/01/24 09:15:47;;;;;;;35.40;21.38;;;4.10;99.90;;;;;;5106555;28;20025;-56
2022/01/24 09:18:13;;;;;;;40.63;22.73;;;4.10;99.90;;;;;;5105104;28;20016;-52
2022/01/24 09:20:39;;;;;;;36.80;22.52;;;4.10;99.90;;;;;;5106544;28;20040;-54
2022/01/24 09:23:07;;;;;;;37.15;22.85;;;4.20;99.90;;;;;;5106365;28;20478;-52
2022/01/24 09:25:32;;;;;;;44.00;24.00;;;4.10;99.90;;;;;;5106742;28;20427;-52
2022/01/24 09:27:58;;;;;;;41.80;24.20;;;4.10;99.90;;;;;;5107132;28;20066;-54
2022/01/24 09:30:24;;;;;;;44.80;24.50;;;4.10;99.90;;;;;;5106415;28;20050;-54
2022/01/24 09:32:51;;;;;;;45.05;26.10;;;4.20;99.90;;;;;;5106456;28;20024;-53
2022/01/24 09:35:18;;;;;;;41.65;23.65;;;4.20;99.90;;;;;;5106647;28;20024;-51
2022/01/24 09:37:46;;;;;;;41.92;26.60;;;4.20;99.90;;;;;;5105307;28;20023;-56
2022/01/24 09:40:15;;;;;;;39.90;25.40;;;4.20;99.90;;;;;;5105546;28;20572;-57
2022/01/24 09:42:41;;;;;;;41.55;25.30;;;4.20;99.90;;;;;;5106071;28;20020;-52
2022/01/24 09:45:08;;;;;;;41.75;24.23;;;4.20;99.90;;;;;;5107296;28;20076;-53
2022/01/24 09:47:35;;;;;;;49.15;27.00;;;4.20;99.90;;;;;;5107077;28;20056;-55
2022/01/24 09:50:00;;;;;;;44.00;26.08;;;4.20;99.90;;;;;;5106980;28;20030;-56
2022/01/24 09:52:26;;;;;;;42.90;25.02;;;4.20;99.90;;;;;;5106408;28;20024;-53
2022/01/24 09:54:54;;;;;;;46.17;26.73;;;4.20;99.90;;;;;;5106613;28;20192;-51
2022/01/24 09:57:20;;;;;;;44.88;26.38;;;4.20;99.90;;;;;;5106768;28;20034;-55
2022/01/24 09:59:46;;;;;;;49.25;28.05;;;4.30;99.90;;;;;;5106012;28;20103;-52
2022/01/24 10:02:11;;;;;;;45.95;26.98;;;4.20;99.90;;;;;;5107187;28;20027;-51
2022/01/24 10:04:38;;;;;;;46.53;28.55;;;4.30;99.90;;;;;;5106811;28;20027;-52
2022/01/24 10:07:08;;;;;;;48.53;28.33;;;4.30;99.90;;;;;;5107388;28;20030;-54
2022/01/24 10:09:40;;;;;;;46.13;28.48;;;4.20;99.90;;;;;;5106970;28;20502;-52
2022/01/24 10:12:30;;;;;;;52.50;30.63;;;4.30;99.90;;;;;;5105478;28;20055;-53
2022/01/24 10:17:43;;;;;;;49.45;28.63;;;4.30;99.90;;;;;;5107281;28;20051;-52
2022/01/24 10:20:20;;;;;;;46.55;27.60;;;4.30;99.90;;;;;;5106546;28;20483;-55
2022/01/24 10:23:00;;;;;;;;;;;4.30;99.90;;;;;;5105544;28;20024;-54
2022/01/24 10:25:26;;;;;;;50.45;28.83;;;4.30;99.90;;;;;;5106698;28;19915;-52
2022/01/24 10:28:03;;;;;;;50.03;29.60;;;4.30;99.90;;;;;;5106658;28;20032;-52
2022/01/24 10:30:31;;;;;;;50.17;28.88;;;4.30;99.90;;;;;;5109707;28;20487;-54
2022/01/24 10:32:57;;;;;;;46.13;28.95;;;4.30;99.90;;;;;;5110091;28;20016;-55
2022/01/24 10:35:42;;;;;;;48.78;28.15;;;4.30;99.90;;;;;;5110824;28;20023;-50
2022/01/24 10:41:21;;;;;;;49.10;28.58;;;4.40;99.90;;;;;;5109304;28;20022;-50
2022/01/24 10:43:42;;;;;;;53.47;30.65;;;4.40;99.90;;;;;;5109326;28;20043;-53
2022/01/24 10:46:08;;;;;;;50.15;29.38;;;4.40;99.90;;;;;;5110052;28;20582;-54
2022/01/24 10:48:40;;;;;;;49.30;28.88;;;4.40;99.90;;;;;;5109585;28;20616;-52
2022/01/24 10:51:06;;;;;;;53.30;31.52;;;4.40;99.90;;;;;;5110359;28;20016;-51
2022/01/24 10:53:37;;;;;;;50.83;28.52;;;4.40;99.90;;;;;;5109236;28;20064;-53
2022/01/24 10:56:23;;;;;;;48.35;28.75;;;4.40;99.90;;;;;;5108499;28;20023;-53
2022/01/24 10:58:48;;;;;;;53.03;29.83;;;4.40;99.90;;;;;;5109187;28;20111;-51
2022/01/24 11:01:14;;;;;;;49.78;28.23;;;4.40;99.90;;;;;;5110417;28;20789;-53
2022/01/24 11:03:39;;;;;;;51.25;29.42;;;4.40;99.90;;;;;;5109180;28;20026;-53
2022/01/24 11:06:05;;;;;;;46.92;29.13;;;4.40;99.90;;;;;;5109932;28;20024;-53
2022/01/24 11:08:30;;;;;;;47.22;27.90;;;4.40;99.90;;;;;;5110238;28;20049;-52
2022/01/24 11:10:56;;;;;;;55.88;31.52;;;4.40;99.90;;;;;;5108852;28;20024;-56
2022/01/24 11:13:25;;;;;;;59.63;29.67;;;4.40;99.90;;;;;;5108740;28;20027;-51
2022/01/24 11:15:58;;;;;;;56.13;31.02;;;4.40;99.90;;;;;;5108941;28;20108;-53
2022/01/24 11:18:24;;;;;;;50.80;29.33;;;4.40;99.90;;;;;;5110227;28;20106;-54
2022/01/24 11:21:01;;;;;;;53.67;30.30;;;4.40;99.90;;;;;;5109773;28;20054;-51
2022/01/24 11:23:28;;;;;;;52.10;29.80;;;4.50;99.90;;;;;;5109115;28;20024;-53
2022/01/24 11:25:57;;;;;;;50.85;30.42;;;4.40;99.90;;;;;;5109185;28;20494;-53
2022/01/24 11:28:24;;;;;;;54.40;31.27;;;4.40;99.90;;;;;;5109194;28;20079;-51
2022/01/24 11:31:15;;;;;;;59.67;31.80;;;4.40;99.90;;;;;;5107696;28;20019;-54
2022/01/24 11:33:42;;;;;;;57.70;31.13;;;4.40;99.90;;;;;;5108060;28;20026;-54
2022/01/24 11:36:09;;;;;;;51.58;30.70;;;4.40;99.90;;;;;;5108706;28;20987;-53
2022/01/24 11:38:38;;;;;;;50.97;29.58;;;4.40;99.90;;;;;;5108812;28;20080;-54
2022/01/24 11:41:06;;;;;;;51.65;30.17;;;4.40;99.90;;;;;;5108922;28;20028;-54
2022/01/24 11:43:36;;;;;;;55.42;30.80;;;4.40;99.90;;;;;;5108993;28;20493;-52
2022/01/24 11:46:25;;;;;;;53.88;30.77;;;4.40;99.90;;;;;;5108430;28;20030;-53
2022/01/24 11:49:05;;;;;;;55.15;30.52;;;4.40;99.90;;;;;;5108044;28;20031;-52
2022/01/24 11:51:32;;;;;;;58.20;32.30;;;4.40;99.90;;;;;;5108885;28;20027;-54
2022/01/24 11:53:58;;;;;;;57.85;32.58;;;4.40;99.90;;;;;;5107852;28;20012;-53
2022/01/24 11:56:25;;;;;;;51.83;30.58;;;4.40;99.90;;;;;;5108653;28;20027;-55
2022/01/24 11:59:11;;;;;;;55.05;31.70;;;4.40;99.90;;;;;;5106441;28;20018;-57
2022/01/24 12:01:39;;;;;;;56.33;32.60;;;4.50;99.90;;;;;;5108057;28;20030;-55
2022/01/24 12:04:05;;;;;;;58.45;32.95;;;4.50;99.90;;;;;;5109271;28;20027;-54
2022/01/24 12:07:09;;;;;;;58.72;32.10;;;4.40;99.90;;;;;;5108728;28;20026;-53
2022/01/24 12:09:35;;;;;;;58.72;32.90;;;4.40;99.90;;;;;;5107834;28;20152;-54
2022/01/24 12:12:41;;;;;;;58.55;31.70;;;4.40;99.90;;;;;;5108631;28;20315;-54
2022/01/24 12:15:08;;;;;;;55.30;30.58;;;4.40;99.90;;;;;;5107914;28;20115;-52
2022/01/24 12:17:49;;;;;;;55.13;29.88;;;4.40;99.90;;;;;;5109203;28;20023;-54
2022/01/24 12:20:37;;;;;;;56.85;31.02;;;4.40;99.90;;;;;;5108223;28;20018;-54
2022/01/24 12:23:25;;;;;;;61.10;31.02;;;4.40;99.90;;;;;;5108083;28;20020;-55
2022/01/24 12:26:02;;;;;;;58.15;32.50;;;4.50;99.90;;;;;;5107374;28;20110;-55
2022/01/24 12:28:34;;;;;;;54.80;31.27;;;4.50;99.90;;;;;;5108244;28;20034;-55
2022/01/24 12:31:04;;;;;;;54.22;30.58;;;4.50;99.90;;;;;;5107125;28;20027;-55
2022/01/24 12:33:50;;;;;;;52.08;31.27;;;4.50;99.90;;;;;;5107548;28;20039;-57
2022/01/24 12:36:16;;;;;;;55.78;30.48;;;4.40;99.90;;;;;;5106958;28;20027;-52
2022/01/24 12:38:44;;;;;;;49.03;28.48;;;4.40;99.90;;;;;;5107087;28;20024;-53
2022/01/24 12:41:16;;;;;;;46.20;28.75;;;4.40;99.90;;;;;;5107159;28;20064;-53
2022/01/24 12:43:58;;;;;;;45.50;27.02;;;4.40;99.90;;;;;;5105477;28;20115;-55
2022/01/24 12:46:26;;;;;;;42.45;24.00;;;4.40;99.90;;;;;;5107314;28;20410;-55
2022/01/24 12:48:54;;;;;;;39.55;23.40;;;4.50;99.90;;;;;;5107098;28;20019;-53
2022/01/24 12:51:23;;;;;;;31.95;20.52;;;4.40;99.90;;;;;;5107402;28;20077;-52
2022/01/24 12:53:50;;;;;;;29.58;19.80;;;4.40;99.90;;;;;;5106146;28;20023;-52
2022/01/24 12:56:18;;;;;;;30.65;19.63;;;4.40;99.90;;;;;;5105832;28;20020;-54
2022/01/24 12:58:47;;;;;;;40.42;21.85;;;4.40;99.90;;;;;;5106947;28;20612;-51
2022/01/24 13:01:34;;;;;;;36.50;22.15;;;4.40;99.90;;;;;;5107076;28;20052;-50
2022/01/24 13:04:02;;;;;;;34.58;21.33;;;4.40;99.90;;;;;;5106870;28;20574;-54
2022/01/24 13:06:33;;;;;;;35.83;21.52;;;4.40;99.90;;;;;;5106996;28;20020;-52
2022/01/24 13:09:00;;;;;;;37.13;23.25;;;4.40;99.90;;;;;;5105165;28;20047;-50
2022/01/24 13:11:28;;;;;;;31.13;19.63;;;4.40;99.90;;;;;;5107570;28;20022;-53
2022/01/24 13:14:11;;;;;;;32.28;19.13;;;4.50;99.90;;;;;;5104868;28;20132;-54
2022/01/24 13:22:46;;;;;;;27.30;18.45;;;4.50;99.90;;;;;;5105768;28;20089;-56
2022/01/24 13:25:15;;;;;;;30.30;20.10;;;4.40;99.90;;;;;;5108401;28;20665;-53
2022/01/24 13:27:47;;;;;;;29.65;19.85;;;4.40;99.90;;;;;;5105307;28;20057;-53
2022/01/24 13:30:26;;;;;;;29.83;18.80;;;4.40;99.90;;;;;;5106893;28;20402;-54
2022/01/24 13:32:57;;;;;;;30.10;19.52;;;4.40;99.90;;;;;;5106169;28;20066;-53
2022/01/24 13:35:36;;;;;;;30.95;19.10;;;4.40;99.90;;;;;;5107185;28;20063;-52
2022/01/24 13:38:08;;;;;;;27.05;18.90;;;4.40;99.90;;;;;;5105474;28;20024;-53
2022/01/24 13:40:55;;;;;;;28.23;18.58;;;4.40;99.90;;;;;;5107003;28;20024;-52
2022/01/24 13:43:37;;;;;;;31.55;19.83;;;4.40;99.90;;;;;;5105800;28;20391;-58
2022/01/24 13:46:06;;;;;;;27.98;18.45;;;4.40;99.90;;;;;;5106908;28;20028;-53
2022/01/24 13:48:48;;;;;;;30.30;20.52;;;4.40;99.90;;;;;;5104973;28;20035;-53
2022/01/24 13:51:17;;;;;;;28.15;18.50;;;4.40;99.90;;;;;;5107030;28;20059;-54
2022/01/24 13:53:45;;;;;;;29.73;19.13;;;4.30;99.90;;;;;;5105494;28;20073;-52
2022/01/24 13:56:27;;;;;;;29.60;18.83;;;4.30;99.90;;;;;;5105552;28;20024;-52
2022/01/24 13:59:14;;;;;;;30.75;19.08;;;4.30;99.90;;;;;;5105553;28;20028;-55
2022/01/24 14:01:51;;;;;;;26.92;17.73;;;4.40;99.90;;;;;;5107229;28;20020;-55
2022/01/24 14:04:24;;;;;;;;;;;4.30;99.90;;;;;;5109956;28;20546;-52
2022/01/24 14:06:55;;;;;;;26.58;17.70;;;4.30;99.90;;;;;;5110517;28;19910;-53
2022/01/24 14:09:37;;;;;;;28.55;18.73;;;4.30;99.90;;;;;;5110436;28;20421;-52
2022/01/24 14:12:05;;;;;;;29.13;17.90;;;4.30;99.90;;;;;;5110112;28;20150;-53
2022/01/24 14:14:41;;;;;;;27.95;18.35;;;4.20;99.90;;;;;;5108619;28;20085;-56
2022/01/24 14:19:38;;;;;;;31.65;19.52;;;4.30;99.90;;;;;;5110048;28;20460;-59
2022/01/24 14:22:12;;;;;;;29.52;17.88;;;4.30;99.90;;;;;;5109320;28;20012;-53
2022/01/24 14:24:50;;;;;;;28.20;18.85;;;4.30;99.90;;;;;;5110673;28;20084;-57
2022/01/24 14:27:37;;;;;;;60.33;32.25;;;4.30;99.90;;;;;;5110699;28;20072;-53
2022/01/24 14:30:25;;;;;;;37.78;22.50;;;4.30;99.90;;;;;;5109239;28;20039;-54
2022/01/24 14:33:06;;;;;;;31.13;21.58;;;4.30;99.90;;;;;;5109063;28;20026;-55
2022/01/24 14:35:38;;;;;;;34.22;25.88;;;4.20;99.90;;;;;;5107678;28;20031;-51
2022/01/24 14:38:05;;;;;;;31.38;17.55;;;4.20;99.90;;;;;;5108086;28;20020;-55
2022/01/24 14:40:52;;;;;;;30.65;20.30;;;4.20;99.90;;;;;;5110763;28;20023;-54
2022/01/24 14:46:10;;;;;;;24.92;18.35;;;4.30;99.90;;;;;;5110002;28;20034;-53
2022/01/24 14:48:48;;;;;;;24.98;17.60;;;4.30;99.90;;;;;;5109811;28;20673;-53
2022/01/24 14:51:22;;;;;;;25.95;20.38;;;4.30;99.90;;;;;;5109078;28;20034;-56
2022/01/24 14:53:48;;;;;;;25.02;19.63;;;4.20;99.90;;;;;;5108910;28;20292;-53